Time;durP1;ratioP1;P1;durP2;ratioP2;P2;SDS_P1;SDS_P2;PMS_P1;PMS_P2;Temp;Humidity;BMP_temperature;BMP_pressure;BME280_temperature;BME280_humidity;BME280_pressure;Samples;Min_cycle;Max_cycle;Signal;HPM_P1;HPM_P2
2022/08/05 00:01:43;;;;;;;2.60;2.40;;;;;;;24.96;49.88;101168.25;4951402;28;97247;-50
2022/08/05 00:04:09;;;;;;;5.97;2.43;;;;;;;24.91;50.39;101169.25;4946085;28;97207;-50
2022/08/05 00:06:34;;;;;;;5.77;2.57;;;;;;;24.90;50.17;101159.31;4944974;28;97291;-50
2022/08/05 00:09:00;;;;;;;5.80;4.20;;;;;;;24.87;50.43;101152.03;4946361;28;97282;-51
2022/08/05 00:11:27;;;;;;;4.90;3.10;;;;;;;24.83;50.45;101162.97;4940149;28;96625;-50
2022/08/05 00:13:52;;;;;;;4.13;3.23;;;;;;;24.78;50.64;101171.66;4944370;28;101539;-50
2022/08/05 00:16:18;;;;;;;5.77;3.57;;;;;;;24.72;50.75;101174.69;4942692;28;96944;-50
2022/08/05 00:18:47;;;;;;;7.80;3.57;;;;;;;24.70;50.84;101180.16;4943978;28;96885;-50
2022/08/05 00:21:14;;;;;;;5.37;3.17;;;;;;;24.70;50.85;101174.53;4941230;28;97544;-50
2022/08/05 00:23:41;;;;;;;3.30;3.00;;;;;;;24.68;50.95;101174.38;4950741;28;97092;-50
2022/08/05 00:26:07;;;;;;;5.17;4.17;;;;;;;24.63;51.08;101178.16;4942296;28;97087;-50
2022/08/05 00:28:34;;;;;;;6.33;3.87;;;;;;;24.58;51.14;101177.09;4941257;28;97183;-50
2022/08/05 00:30:59;;;;;;;4.83;3.67;;;;;;;24.53;51.01;101169.63;4937112;28;97313;-50
2022/08/05 00:33:24;;;;;;;6.60;3.87;;;;;;;24.49;51.39;101168.53;4940859;28;97654;-50
2022/08/05 00:35:50;;;;;;;7.67;4.17;;;;;;;24.49;51.33;101177.00;4942112;28;96908;-49
2022/08/05 00:38:15;;;;;;;4.47;3.40;;;;;;;24.44;51.25;101173.09;4941137;28;96887;-50
2022/08/05 00:40:49;;;;;;;5.80;3.43;;;;;;;24.41;52.02;101165.06;4942806;28;97080;-50
2022/08/05 00:43:15;;;;;;;4.23;3.30;;;;;;;24.37;51.70;101156.31;4941852;28;97468;-50
2022/08/05 00:45:42;;;;;;;5.57;3.70;;;;;;;24.34;51.45;101163.06;4948239;28;97191;-50
2022/08/05 00:48:08;;;;;;;7.67;3.80;;;;;;;24.26;51.91;101156.78;4943164;28;96972;-51
2022/08/05 00:50:33;;;;;;;12.00;4.57;;;;;;;24.18;51.67;101150.50;4944277;28;97645;-50
2022/08/05 00:52:59;;;;;;;5.67;4.00;;;;;;;24.11;52.09;101145.69;4941258;28;96861;-50
2022/08/05 00:55:24;;;;;;;5.67;3.47;;;;;;;24.07;52.02;101139.72;4940238;28;97289;-50
2022/08/05 00:57:50;;;;;;;6.20;3.47;;;;;;;24.02;52.05;101138.59;4942101;28;97553;-51
2022/08/05 01:00:15;;;;;;;6.10;3.70;;;;;;;23.97;52.18;101138.81;4939353;28;97693;-50
2022/08/05 01:02:40;;;;;;;5.13;3.40;;;;;;;23.91;52.31;101122.19;4940855;28;97542;-50
2022/08/05 01:05:06;;;;;;;6.90;3.87;;;;;;;23.87;52.33;101135.16;4939314;28;97015;-50
2022/08/05 01:07:31;;;;;;;5.57;4.20;;;;;;;23.84;52.22;101137.81;4945139;28;96815;-50
2022/08/05 01:09:57;;;;;;;5.67;3.93;;;;;;;23.79;52.52;101144.41;4942898;28;97376;-50
2022/08/05 01:12:24;;;;;;;5.37;3.70;;;;;;;23.80;52.54;101140.28;4941803;28;96892;-53
2022/08/05 01:15:04;;;;;;;7.90;3.70;;;;;;;23.76;52.51;101128.66;4940791;28;96975;-50
2022/08/05 01:17:38;;;;;;;6.60;3.77;;;;;;;23.69;53.56;101118.25;4940428;28;97022;-51
2022/08/05 01:20:18;;;;;;;6.57;3.10;;;;;;;23.70;53.59;101116.91;4943652;28;97467;-50
2022/08/05 01:22:49;;;;;;;4.70;3.60;;;;;;;23.71;52.89;101106.44;4935172;28;97052;-50
2022/08/05 01:25:40;;;;;;;7.47;4.00;;;;;;;23.67;53.10;101106.09;4935035;28;97173;-50
2022/08/05 01:28:19;;;;;;;5.00;3.53;;;;;;;23.64;53.67;101126.91;4925638;28;97187;-50
2022/08/05 01:30:58;;;;;;;5.77;3.27;;;;;;;23.66;53.79;101122.19;4932616;28;101963;-50
2022/08/05 01:33:28;;;;;;;3.70;3.30;;;;;;;23.68;52.69;101118.81;4943024;28;97614;-50
2022/08/05 01:35:55;;;;;;;5.60;3.30;;;;;;;23.71;52.74;101114.88;4943112;28;96997;-51
2022/08/05 01:38:22;;;;;;;4.97;2.73;;;;;;;23.70;52.83;101118.97;4944001;28;97011;-50
2022/08/05 01:40:48;;;;;;;4.67;3.30;;;;;;;23.73;52.72;101115.78;4938647;28;97321;-50
2022/08/05 01:43:14;;;;;;;4.13;3.00;;;;;;;23.76;52.94;101111.09;4944895;28;97030;-49
2022/08/05 01:45:40;;;;;;;6.20;3.60;;;;;;;23.76;52.79;101111.81;4941737;28;97570;-50
2022/08/05 01:48:07;;;;;;;4.93;3.17;;;;;;;23.76;52.97;101116.69;4944231;28;96808;-50
2022/08/05 01:50:38;;;;;;;4.67;2.73;;;;;;;23.80;53.08;101117.78;4941752;28;98127;-50
2022/08/05 01:53:08;;;;;;;3.97;2.37;;;;;;;23.82;52.74;101106.72;4943348;28;96645;-51
2022/08/05 01:55:36;;;;;;;3.83;2.40;;;;;;;23.80;52.89;101100.19;4946032;28;97107;-51
2022/08/05 01:58:04;;;;;;;4.10;2.57;;;;;;;23.83;52.97;101118.69;4941867;28;97214;-50
2022/08/05 02:00:32;;;;;;;5.27;3.80;;;;;;;23.85;52.95;101114.00;4939854;28;97567;-51
2022/08/05 02:03:05;;;;;;;5.37;3.30;;;;;;;23.88;53.02;101136.63;4941918;28;97273;-50
2022/08/05 02:05:35;;;;;;;2.53;2.33;;;;;;;23.89;53.01;101144.50;4941395;28;97191;-50
2022/08/05 02:08:01;;;;;;;3.07;2.57;;;;;;;23.92;52.68;101148.25;4941709;28;97067;-50
2022/08/05 02:10:29;;;;;;;2.70;2.50;;;;;;;23.93;52.82;101153.28;4944703;28;97414;-50
2022/08/05 02:13:03;;;;;;;5.30;2.90;;;;;;;23.97;52.90;101141.63;4945522;28;96900;-50
2022/08/05 02:15:42;;;;;;;5.83;2.80;;;;;;;23.98;53.16;101120.66;4937150;28;97407;-50
2022/08/05 02:18:19;;;;;;;2.40;2.10;;;;;;;23.97;53.43;101091.03;4945523;28;96970;-50
2022/08/05 02:20:55;;;;;;;4.57;2.53;;;;;;;23.87;52.69;101074.09;4941524;28;98618;-50
2022/08/05 02:23:25;;;;;;;2.50;2.20;;;;;;;23.83;52.96;101073.72;4940194;28;101150;-50
2022/08/05 02:25:51;;;;;;;2.50;2.30;;;;;;;23.80;52.81;101058.78;4941816;28;96624;-50
2022/08/05 02:28:25;;;;;;;3.97;2.40;;;;;;;23.76;53.37;101027.50;4942991;28;97277;-50
2022/08/05 02:31:06;;;;;;;5.27;3.23;;;;;;;23.71;53.82;101059.41;4944201;28;97463;-50
2022/08/05 02:33:36;;;;;;;3.97;2.07;;;;;;;23.73;53.34;101073.63;4942420;28;100279;-50
2022/08/05 02:36:05;;;;;;;3.30;2.00;;;;;;;23.69;53.43;101028.34;4950027;28;96951;-50
2022/08/05 02:38:31;;;;;;;1.93;1.83;;;;;;;23.68;53.66;101015.59;4945170;28;97119;-49
2022/08/05 02:40:58;;;;;;;2.07;1.97;;;;;;;23.68;53.62;101021.22;4940580;28;97295;-50
2022/08/05 02:43:25;;;;;;;2.63;2.43;;;;;;;23.68;53.57;101021.22;4942669;28;96878;-50
2022/08/05 02:45:52;;;;;;;4.97;2.83;;;;;;;23.64;53.85;100986.41;4938728;28;97164;-50
2022/08/05 02:48:18;;;;;;;3.83;2.33;;;;;;;23.59;53.89;100965.69;4942685;28;96827;-49
2022/08/05 02:50:46;;;;;;;3.37;2.60;;;;;;;23.54;54.23;100983.53;4940295;28;97720;-50
2022/08/05 02:53:13;;;;;;;3.00;2.70;;;;;;;23.49;54.31;101012.59;4947835;28;97257;-50
2022/08/05 02:55:39;;;;;;;7.63;2.80;;;;;;;23.49;54.48;101032.25;4945029;28;96995;-50
2022/08/05 02:58:05;;;;;;;2.93;2.63;;;;;;;23.51;54.22;101054.91;4948929;28;97211;-50
2022/08/05 03:00:33;;;;;;;2.50;2.30;;;;;;;23.53;54.21;101066.31;4943860;28;97767;-55
2022/08/05 03:03:00;;;;;;;3.07;2.80;;;;;;;23.54;54.46;101067.06;4939188;28;97078;-50
2022/08/05 03:05:26;;;;;;;3.80;2.93;;;;;;;23.54;54.51;101062.19;4943973;28;97074;-50
2022/08/05 03:07:53;;;;;;;5.80;3.10;;;;;;;23.50;54.58;101066.72;4939103;28;96952;-50
2022/08/05 03:10:19;;;;;;;4.47;3.23;;;;;;;23.48;54.68;101066.53;4941157;28;97550;-50
2022/08/05 03:12:45;;;;;;;3.50;2.97;;;;;;;23.53;54.68;101071.91;4946149;28;96952;-50
2022/08/05 03:15:10;;;;;;;4.47;2.70;;;;;;;23.52;54.72;101076.06;4944323;28;96957;-50
2022/08/05 03:17:36;;;;;;;4.20;2.67;;;;;;;23.52;54.65;101094.97;4944287;28;96930;-50
2022/08/05 03:20:03;;;;;;;2.87;2.67;;;;;;;23.52;54.82;101118.19;4948585;28;97541;-50
2022/08/05 03:22:28;;;;;;;5.93;2.60;;;;;;;23.50;54.92;101109.56;4939087;28;97316;-50
2022/08/05 03:24:54;;;;;;;3.23;2.87;;;;;;;23.48;54.70;101109.41;4941389;28;96759;-50
2022/08/05 03:27:20;;;;;;;3.27;2.33;;;;;;;23.49;54.85;101110.16;4935187;28;97423;-50
2022/08/05 03:29:46;;;;;;;2.90;2.70;;;;;;;23.48;54.59;101105.88;4944463;28;97628;-50
2022/08/05 03:32:14;;;;;;;3.10;2.73;;;;;;;23.45;54.70;101107.75;4947885;28;98420;-50
2022/08/05 03:34:39;;;;;;;3.40;3.07;;;;;;;23.42;54.90;101105.31;4945164;28;97237;-50
2022/08/05 03:37:05;;;;;;;3.27;3.07;;;;;;;23.39;54.90;101100.88;4944208;28;96736;-50
2022/08/05 03:39:31;;;;;;;5.47;3.23;;;;;;;23.35;54.84;101100.53;4947964;28;97191;-50
2022/08/05 03:41:57;;;;;;;4.53;2.37;;;;;;;23.31;54.76;101098.06;4946404;28;97052;-50
2022/08/05 03:44:23;;;;;;;3.20;2.40;;;;;;;23.28;54.84;101098.47;4940856;28;97065;-50
2022/08/05 03:46:48;;;;;;;3.70;2.80;;;;;;;23.23;54.91;101088.19;4940623;28;96900;-50
2022/08/05 03:49:13;;;;;;;4.17;3.10;;;;;;;23.19;55.18;101093.47;4941594;28;97464;-50
2022/08/05 03:51:44;;;;;;;2.77;2.50;;;;;;;23.18;55.22;101098.31;4935514;28;97227;-50
2022/08/05 03:54:44;;;;;;;3.57;2.40;;;;;;;23.15;56.07;101109.97;4947356;28;97134;-50
2022/08/05 03:57:12;;;;;;;2.50;2.30;;;;;;;23.13;55.26;101104.91;4945061;28;97556;-50
2022/08/05 03:59:45;;;;;;;3.27;2.10;;;;;;;23.13;55.58;101107.72;4943448;28;97056;-50
2022/08/05 04:02:11;;;;;;;3.77;2.80;;;;;;;23.15;55.24;101121.19;4943177;28;97148;-50
2022/08/05 04:04:39;;;;;;;2.70;2.40;;;;;;;23.16;55.39;101134.66;4939790;28;96938;-50
2022/08/05 04:07:05;;;;;;;4.10;2.70;;;;;;;23.15;55.22;101133.19;4944417;28;97181;-50
2022/08/05 04:09:31;;;;;;;3.20;2.87;;;;;;;23.15;55.24;101138.03;4941723;28;97194;-52
2022/08/05 04:11:58;;;;;;;3.00;2.70;;;;;;;23.16;55.25;101150.75;4943406;28;97084;-50
2022/08/05 04:14:25;;;;;;;4.50;3.20;;;;;;;23.14;55.31;101154.13;4937359;28;99552;-50
2022/08/05 04:16:51;;;;;;;2.40;2.20;;;;;;;23.11;55.28;101155.25;4942540;28;96773;-50
2022/08/05 04:19:16;;;;;;;2.77;2.47;;;;;;;23.11;55.53;101146.84;4938917;28;97401;-50
2022/08/05 04:21:41;;;;;;;3.30;2.33;;;;;;;23.09;55.12;101141.03;4943980;28;97331;-50
2022/08/05 04:24:07;;;;;;;4.83;2.60;;;;;;;23.07;55.36;101154.91;4945374;28;96710;-50
2022/08/05 04:26:33;;;;;;;2.93;2.40;;;;;;;23.02;55.34;101169.91;4943175;28;97059;-50
2022/08/05 04:28:59;;;;;;;5.07;2.70;;;;;;;23.01;55.23;101157.19;4941252;28;96814;-50
2022/08/05 04:31:24;;;;;;;3.50;2.30;;;;;;;22.97;55.33;101162.44;4944140;28;97204;-51
2022/08/05 04:33:49;;;;;;;3.93;3.10;;;;;;;22.95;55.46;101160.22;4943542;28;97286;-50
2022/08/05 04:36:15;;;;;;;2.50;2.33;;;;;;;22.95;55.66;101170.69;4945741;28;97207;-50
2022/08/05 04:38:43;;;;;;;3.60;2.57;;;;;;;22.95;55.67;101159.44;4937731;28;97211;-50
2022/08/05 04:41:09;;;;;;;2.73;2.40;;;;;;;22.94;55.38;101157.94;4938975;28;97123;-50
2022/08/05 04:43:34;;;;;;;2.90;2.63;;;;;;;22.93;55.28;101167.69;4944377;28;97129;-50
2022/08/05 04:46:00;;;;;;;2.57;2.37;;;;;;;22.93;55.40;101170.50;4945003;28;97047;-50
2022/08/05 04:48:25;;;;;;;3.40;2.73;;;;;;;22.92;55.42;101171.81;4942068;28;96904;-50
2022/08/05 04:50:50;;;;;;;3.17;2.67;;;;;;;22.90;55.47;101163.97;4939849;28;96783;-50
2022/08/05 04:53:17;;;;;;;3.00;2.30;;;;;;;22.85;55.41;101167.72;4940952;28;97233;-50
2022/08/05 04:55:43;;;;;;;3.90;2.57;;;;;;;22.83;55.52;101163.97;4940525;28;97297;-49
2022/08/05 04:58:10;;;;;;;3.30;2.70;;;;;;;22.81;55.57;101160.97;4947732;28;97272;-50
2022/08/05 05:00:37;;;;;;;3.40;3.20;;;;;;;22.77;55.62;101155.78;4939274;28;97317;-49
2022/08/05 05:03:04;;;;;;;4.10;2.90;;;;;;;22.77;55.54;101160.63;4940745;28;96953;-50
2022/08/05 05:05:30;;;;;;;3.00;2.50;;;;;;;22.73;55.70;101160.28;4941763;28;96955;-50
2022/08/05 05:08:03;;;;;;;4.80;2.80;;;;;;;22.72;56.17;101164.38;4943818;28;97416;-50
2022/08/05 05:10:31;;;;;;;2.50;2.30;;;;;;;22.71;55.71;101186.09;4936423;28;97540;-50
2022/08/05 05:12:57;;;;;;;2.90;2.70;;;;;;;22.69;55.67;101171.13;4941743;28;96915;-52
2022/08/05 05:15:23;;;;;;;3.20;2.40;;;;;;;22.67;55.63;101173.75;4940758;28;97022;-50
2022/08/05 05:17:48;;;;;;;3.17;2.20;;;;;;;22.66;55.78;101167.41;4936643;28;97041;-50
2022/08/05 05:20:14;;;;;;;2.60;2.20;;;;;;;22.64;55.69;101169.28;4942542;28;96867;-49
2022/08/05 05:22:39;;;;;;;3.23;2.83;;;;;;;22.59;55.73;101168.16;4942516;28;96922;-50
2022/08/05 05:25:06;;;;;;;3.00;2.03;;;;;;;22.57;55.77;101170.00;4940626;28;98341;-50
2022/08/05 05:27:33;;;;;;;3.47;3.00;;;;;;;22.50;55.86;101162.38;4946961;28;102126;-50
2022/08/05 05:29:59;;;;;;;2.47;2.17;;;;;;;22.47;55.94;101163.47;4942314;28;96864;-50
2022/08/05 05:32:24;;;;;;;2.90;2.63;;;;;;;22.44;56.12;101148.53;4946363;28;96838;-50
2022/08/05 05:34:50;;;;;;;3.40;2.77;;;;;;;22.42;56.20;101164.41;4944607;28;96803;-50
2022/08/05 05:37:15;;;;;;;3.00;2.80;;;;;;;22.35;56.26;101161.06;4941184;28;104481;-50
2022/08/05 05:39:41;;;;;;;2.73;2.53;;;;;;;22.35;56.10;101165.91;4943711;28;97414;-50
2022/08/05 05:42:06;;;;;;;7.60;3.00;;;;;;;22.32;56.19;101162.19;4945018;28;97000;-50
2022/08/05 05:44:31;;;;;;;2.63;2.43;;;;;;;22.34;56.22;101161.63;4942567;28;96819;-50
2022/08/05 05:46:57;;;;;;;3.10;2.80;;;;;;;22.35;56.09;101163.88;4946472;28;97352;-50
2022/08/05 05:49:22;;;;;;;2.40;2.13;;;;;;;22.39;56.25;101163.47;4949614;28;97014;-50
2022/08/05 05:51:49;;;;;;;2.47;2.27;;;;;;;22.39;56.21;101178.25;4946662;28;97168;-50
2022/08/05 05:54:14;;;;;;;3.00;2.50;;;;;;;22.43;56.26;101179.94;4946867;28;96798;-50
2022/08/05 05:56:40;;;;;;;2.17;2.03;;;;;;;22.47;56.26;101189.47;4944507;28;97373;-50
2022/08/05 05:59:05;;;;;;;2.73;2.47;;;;;;;22.47;56.24;101185.91;4937928;28;106291;-56
2022/08/05 06:01:33;;;;;;;2.30;2.17;;;;;;;22.44;56.27;101173.00;4940043;28;97275;-50
2022/08/05 06:03:58;;;;;;;4.10;2.63;;;;;;;22.40;56.21;101170.59;4940719;28;97030;-50
2022/08/05 06:06:23;;;;;;;2.97;2.67;;;;;;;22.42;56.21;101179.19;4943977;28;97832;-50
2022/08/05 06:08:49;;;;;;;4.97;2.33;;;;;;;22.45;56.12;101185.72;4945903;28;99065;-50
2022/08/05 06:11:14;;;;;;;2.40;2.07;;;;;;;22.46;56.21;101192.81;4947836;28;97113;-50
2022/08/05 06:13:39;;;;;;;3.80;2.53;;;;;;;22.48;56.31;101184.59;4944241;28;97064;-50
2022/08/05 06:16:05;;;;;;;3.53;2.20;;;;;;;22.51;56.25;101189.09;4947716;28;106382;-50
2022/08/05 06:18:30;;;;;;;4.53;2.40;;;;;;;22.56;55.97;101179.72;4937815;28;99516;-51
2022/08/05 06:20:56;;;;;;;2.67;2.33;;;;;;;22.57;56.12;101186.81;4946850;28;96870;-51
2022/08/05 06:23:21;;;;;;;3.57;2.37;;;;;;;22.51;56.03;101181.44;4939698;28;97154;-50
2022/08/05 06:25:47;;;;;;;2.60;2.30;;;;;;;22.52;56.10;101182.19;4936532;28;98584;-50
2022/08/05 06:28:13;;;;;;;3.00;2.60;;;;;;;22.55;55.91;101169.81;4941121;28;97524;-50
2022/08/05 06:30:38;;;;;;;3.23;2.43;;;;;;;22.56;56.01;101168.50;4945582;28;96617;-50
2022/08/05 06:33:03;;;;;;;5.20;3.33;;;;;;;22.54;56.06;101173.94;4944578;28;97000;-50
2022/08/05 06:35:29;;;;;;;2.43;2.33;;;;;;;22.53;55.99;101178.03;4944147;28;97423;-50
2022/08/05 06:37:54;;;;;;;2.33;2.07;;;;;;;22.51;55.82;101183.47;4938305;28;97114;-50
2022/08/05 06:40:20;;;;;;;2.60;2.40;;;;;;;22.50;55.92;101190.41;4938034;28;97429;-50
2022/08/05 06:42:45;;;;;;;2.30;2.20;;;;;;;22.50;56.04;101201.63;4942647;28;96994;-50
2022/08/05 06:45:10;;;;;;;2.60;2.43;;;;;;;22.47;56.11;101216.75;4937759;28;98739;-50
2022/08/05 06:47:36;;;;;;;3.27;2.90;;;;;;;22.42;56.45;101229.66;4938000;28;96770;-50
2022/08/05 06:50:01;;;;;;;3.43;2.43;;;;;;;22.41;56.44;101216.94;4944328;28;97084;-51
2022/08/05 06:52:26;;;;;;;3.50;2.50;;;;;;;22.40;56.40;101223.88;4944311;28;97421;-50
2022/08/05 06:54:52;;;;;;;2.90;2.60;;;;;;;22.36;56.65;101215.09;4939880;28;97317;-51
2022/08/05 06:57:17;;;;;;;6.80;2.37;;;;;;;22.32;56.75;101217.53;4941363;28;97606;-52
2022/08/05 06:59:43;;;;;;;3.37;2.20;;;;;;;22.25;56.92;101229.47;4942437;28;97087;-52
2022/08/05 07:02:09;;;;;;;4.00;2.50;;;;;;;22.20;57.28;101245.19;4935060;28;97034;-52
2022/08/05 07:04:34;;;;;;;2.70;2.00;;;;;;;22.19;57.43;101246.47;4935671;28;97232;-52
2022/08/05 07:07:00;;;;;;;4.10;2.43;;;;;;;22.20;57.49;101242.38;4946948;28;96950;-53
2022/08/05 07:09:25;;;;;;;2.10;2.00;;;;;;;22.19;57.35;101243.66;4944503;28;97257;-52
2022/08/05 07:11:51;;;;;;;2.47;2.07;;;;;;;22.11;57.56;101242.16;4929046;28;97059;-52
2022/08/05 07:17:01;;;;;;;3.70;2.40;;;;;;;22.09;57.69;101234.31;4929462;28;96923;-52
2022/08/05 07:19:27;;;;;;;3.20;2.40;;;;;;;22.11;57.74;101233.75;4930042;28;96850;-51
2022/08/05 07:21:54;;;;;;;2.67;2.23;;;;;;;22.10;57.76;101232.28;4932247;28;97121;-52
2022/08/05 07:24:19;;;;;;;2.30;2.20;;;;;;;22.08;57.79;101232.81;4936039;28;97484;-51
2022/08/05 07:26:44;;;;;;;2.50;2.40;;;;;;;22.04;57.87;101232.44;4938714;28;97088;-51
2022/08/05 07:29:10;;;;;;;3.20;2.90;;;;;;;22.01;58.02;101235.63;4940578;28;97781;-50
2022/08/05 07:31:36;;;;;;;3.00;2.80;;;;;;;21.99;58.18;101246.66;4936776;28;96781;-50
2022/08/05 07:34:01;;;;;;;3.43;2.90;;;;;;;22.01;58.19;101238.44;4937406;28;96883;-50
2022/08/05 07:36:28;;;;;;;3.50;2.83;;;;;;;22.03;58.36;101241.41;4929638;28;97152;-50
2022/08/05 07:38:54;;;;;;;3.47;3.17;;;;;;;22.02;58.28;101240.66;4938580;28;97047;-50
2022/08/05 07:41:21;;;;;;;2.47;2.30;;;;;;;22.00;58.29;101239.72;4940441;28;97048;-51
2022/08/05 07:43:47;;;;;;;3.10;2.90;;;;;;;21.98;58.41;101229.09;4937158;28;97467;-51
2022/08/05 07:46:12;;;;;;;3.93;2.70;;;;;;;21.99;58.48;101230.59;4938408;28;97471;-52
2022/08/05 07:48:38;;;;;;;3.03;2.83;;;;;;;21.97;58.60;101224.78;4941666;28;96750;-50
2022/08/05 07:51:03;;;;;;;3.20;2.90;;;;;;;21.97;58.73;101238.81;4945768;28;97093;-50
2022/08/05 07:53:29;;;;;;;3.23;2.93;;;;;;;22.00;58.82;101248.88;4943569;28;96972;-51
2022/08/05 07:55:54;;;;;;;2.50;2.40;;;;;;;22.03;58.85;101242.16;4941959;28;96948;-51
2022/08/05 07:58:19;;;;;;;2.90;2.70;;;;;;;22.04;58.82;101251.34;4940639;28;96727;-50
2022/08/05 08:00:45;;;;;;;4.40;2.67;;;;;;;22.03;58.76;101241.41;4946684;28;97409;-52
2022/08/05 08:03:12;;;;;;;2.53;2.30;;;;;;;22.01;58.82;101239.19;4943504;28;97559;-50
2022/08/05 08:05:38;;;;;;;2.73;2.53;;;;;;;21.95;58.80;101226.66;4943184;28;97174;-51
2022/08/05 08:08:03;;;;;;;2.57;2.10;;;;;;;21.92;58.83;101196.94;4940631;28;97238;-50
2022/08/05 08:10:29;;;;;;;4.97;1.67;;;;;;;21.91;58.89;101199.00;4942329;28;97047;-51
2022/08/05 08:12:55;;;;;;;3.33;2.27;;;;;;;21.93;58.94;101196.38;4941628;28;97093;-50
2022/08/05 08:15:20;;;;;;;2.40;2.20;;;;;;;21.95;58.96;101207.78;4943702;28;106894;-52
2022/08/05 08:17:46;;;;;;;2.13;2.00;;;;;;;21.98;58.99;101209.47;4941018;28;96856;-51
2022/08/05 08:20:11;;;;;;;1.83;1.73;;;;;;;21.94;58.92;101205.53;4943137;28;97246;-51
2022/08/05 08:22:37;;;;;;;2.33;2.17;;;;;;;21.91;59.13;101201.78;4941950;28;97877;-51
2022/08/05 08:25:04;;;;;;;3.40;2.30;;;;;;;21.93;59.13;101210.38;4946358;28;97554;-50
2022/08/05 08:27:30;;;;;;;2.40;2.20;;;;;;;21.99;59.17;101216.56;4944092;28;97172;-50
2022/08/05 08:29:56;;;;;;;1.77;1.67;;;;;;;22.05;59.06;101224.78;4936918;28;96933;-50
2022/08/05 08:32:21;;;;;;;1.63;1.53;;;;;;;22.07;58.88;101225.72;4940181;28;97088;-50
2022/08/05 08:34:47;;;;;;;2.80;1.67;;;;;;;22.11;58.92;101230.97;4946224;28;97240;-50
2022/08/05 08:37:12;;;;;;;2.67;2.00;;;;;;;22.20;59.11;101233.97;4938873;28;97140;-50
2022/08/05 08:39:37;;;;;;;3.23;2.00;;;;;;;22.25;59.16;101221.81;4938917;28;96923;-49
2022/08/05 08:42:04;;;;;;;1.43;1.33;;;;;;;22.27;59.06;101215.66;4937841;28;114850;-50
2022/08/05 08:44:31;;;;;;;2.90;1.80;;;;;;;22.23;59.07;101224.44;4941776;28;97149;-49
2022/08/05 08:46:58;;;;;;;2.33;1.33;;;;;;;22.22;59.19;101217.34;4938549;28;97051;-50
2022/08/05 08:49:26;;;;;;;2.63;1.47;;;;;;;22.22;59.02;101216.56;4943342;28;97060;-50
2022/08/05 08:52:00;;;;;;;1.60;1.50;;;;;;;22.24;59.15;101231.53;4941748;28;97731;-50
2022/08/05 08:54:25;;;;;;;1.30;1.20;;;;;;;22.13;58.74;101228.34;4947146;28;97438;-51
2022/08/05 08:56:51;;;;;;;1.33;1.23;;;;;;;22.08;58.79;101220.88;4946368;28;97076;-50
2022/08/05 08:59:18;;;;;;;1.50;1.40;;;;;;;22.00;58.57;101218.06;4943258;28;96904;-50
2022/08/05 09:01:44;;;;;;;2.20;1.37;;;;;;;22.01;58.84;101227.97;4943814;28;102256;-50
2022/08/05 09:04:11;;;;;;;1.10;1.00;;;;;;;22.04;58.85;101235.25;4946223;28;97622;-50
2022/08/05 09:06:37;;;;;;;2.30;1.20;;;;;;;22.09;58.78;101242.75;4933470;28;97253;-50
2022/08/05 09:09:02;;;;;;;1.37;1.27;;;;;;;22.14;58.86;101253.03;4933390;28;97228;-51
2022/08/05 09:11:32;;;;;;;1.50;1.40;;;;;;;22.18;58.76;101242.19;4936787;28;98674;-50
2022/08/05 09:13:59;;;;;;;1.20;1.10;;;;;;;22.22;58.92;101236.94;4933253;28;100357;-50
2022/08/05 09:16:25;;;;;;;1.57;1.40;;;;;;;22.32;58.87;101245.56;4934832;28;97329;-50
2022/08/05 09:18:50;;;;;;;1.37;1.20;;;;;;;22.40;58.76;101249.09;4933412;28;97476;-50
2022/08/05 09:21:15;;;;;;;1.53;1.27;;;;;;;22.48;58.88;101252.66;4939797;28;96859;-50
2022/08/05 09:23:44;;;;;;;1.40;1.30;;;;;;;22.55;58.56;101253.97;4943921;28;96742;-50
2022/08/05 09:26:11;;;;;;;1.53;1.30;;;;;;;22.58;58.34;101245.19;4948925;28;97353;-50
2022/08/05 09:28:39;;;;;;;1.13;1.13;;;;;;;22.60;58.34;101253.81;4941169;28;96902;-50
2022/08/05 09:31:06;;;;;;;3.17;1.30;;;;;;;22.61;58.55;101258.09;4949890;28;97411;-50
2022/08/05 09:33:47;;;;;;;1.83;1.57;;;;;;;22.63;59.25;101268.78;4942350;28;98543;-50
2022/08/05 09:36:13;;;;;;;1.60;1.33;;;;;;;22.61;58.28;101260.91;4941636;28;96988;-50
2022/08/05 09:38:54;;;;;;;5.23;1.63;;;;;;;22.55;59.13;101263.13;4942865;28;99201;-50
2022/08/05 09:41:20;;;;;;;1.97;1.63;;;;;;;22.51;58.62;101268.38;4934752;28;105405;-49
2022/08/05 09:43:45;;;;;;;1.47;1.37;;;;;;;22.49;58.80;101275.84;4940894;28;96848;-49
2022/08/05 09:46:23;;;;;;;1.43;1.33;;;;;;;22.48;58.67;101288.34;4940638;28;97249;-50
2022/08/05 09:48:48;;;;;;;2.23;1.40;;;;;;;22.37;58.15;101293.03;4945446;28;97307;-50
2022/08/05 09:51:13;;;;;;;2.07;1.50;;;;;;;22.31;58.51;101294.53;4943676;28;97543;-49
2022/08/05 09:53:57;;;;;;;2.20;1.40;;;;;;;22.26;59.14;101309.47;4942110;28;97166;-50
2022/08/05 09:56:32;;;;;;;2.43;1.17;;;;;;;22.29;58.67;101309.09;4941751;28;97061;-50
2022/08/05 09:59:06;;;;;;;5.53;1.83;;;;;;;22.33;58.81;101303.88;4936801;28;96760;-50
2022/08/05 10:01:35;;;;;;;2.10;1.50;;;;;;;22.34;58.56;101301.81;4942728;28;96947;-50
2022/08/05 10:04:06;;;;;;;1.73;1.63;;;;;;;22.33;58.84;101286.28;4943459;28;98364;-49
2022/08/05 10:06:31;;;;;;;1.43;1.27;;;;;;;22.36;58.83;101285.94;4942977;28;97764;-50
2022/08/05 10:09:17;;;;;;;2.70;1.97;;;;;;;22.34;58.92;101282.19;4941545;28;97415;-50
2022/08/05 10:11:44;;;;;;;1.93;1.63;;;;;;;22.29;58.56;101285.94;4944178;28;97949;-50
2022/08/05 10:14:27;;;;;;;1.80;1.63;;;;;;;22.30;59.15;101287.44;4941193;28;96809;-50
2022/08/05 10:16:55;;;;;;;3.23;1.80;;;;;;;22.34;58.71;101271.72;4942019;28;96881;-51
2022/08/05 10:19:22;;;;;;;1.67;1.57;;;;;;;22.37;58.66;101272.66;4946553;28;97330;-51
2022/08/05 10:21:48;;;;;;;3.20;1.67;;;;;;;22.36;58.56;101268.38;4933291;28;97102;-50
2022/08/05 10:24:15;;;;;;;2.07;1.87;;;;;;;22.36;58.47;101274.72;4939426;28;97321;-51
2022/08/05 10:26:41;;;;;;;2.10;1.50;;;;;;;22.42;58.58;101296.22;4938764;28;97282;-50
2022/08/05 10:29:08;;;;;;;2.40;1.40;;;;;;;22.42;58.45;101301.81;4942779;28;97103;-51
2022/08/05 10:31:33;;;;;;;1.43;1.33;;;;;;;22.43;58.37;101308.94;4941204;28;102323;-50
2022/08/05 10:33:59;;;;;;;1.80;1.70;;;;;;;22.34;58.22;101304.63;4944375;28;97166;-51
2022/08/05 10:36:24;;;;;;;1.77;1.57;;;;;;;22.33;58.47;101314.34;4940361;28;97065;-50
2022/08/05 10:38:57;;;;;;;1.77;1.67;;;;;;;22.32;58.54;101310.78;4944975;28;96847;-51
2022/08/05 10:41:31;;;;;;;1.40;1.30;;;;;;;22.31;58.96;101322.56;4936772;28;97100;-50
2022/08/05 10:44:02;;;;;;;2.23;1.90;;;;;;;22.28;58.79;101324.41;4936448;28;97177;-51
2022/08/05 10:46:50;;;;;;;1.60;1.50;;;;;;;22.28;59.14;101346.84;4940641;28;97297;-51
2022/08/05 10:49:16;;;;;;;2.30;1.70;;;;;;;22.31;58.68;101348.56;4941786;28;97134;-51
2022/08/05 10:51:49;;;;;;;1.60;1.50;;;;;;;22.31;58.62;101345.75;4946768;28;97277;-51
2022/08/05 10:54:16;;;;;;;14.03;1.80;;;;;;;22.28;58.56;101358.06;4944554;28;97848;-51
2022/08/05 10:56:52;;;;;;;1.60;1.50;;;;;;;22.23;58.61;101352.66;4940546;28;97054;-51
2022/08/05 10:59:22;;;;;;;1.73;1.40;;;;;;;22.18;58.86;101382.34;4939945;28;97162;-51
2022/08/05 11:01:47;;;;;;;1.27;1.27;;;;;;;22.18;58.93;101401.97;4939104;28;97460;-51
2022/08/05 11:04:20;;;;;;;1.93;1.70;;;;;;;22.20;59.14;101435.81;4940938;28;97063;-51
2022/08/05 11:07:00;;;;;;;3.23;1.53;;;;;;;22.17;59.33;101439.69;4944124;28;97110;-51
2022/08/05 11:09:27;;;;;;;7.20;1.77;;;;;;;22.16;59.07;101441.03;4938884;28;96887;-50
2022/08/05 11:11:54;;;;;;;1.83;1.73;;;;;;;22.15;59.10;101431.09;4938529;28;97970;-51
2022/08/05 11:14:37;;;;;;;2.17;2.07;;;;;;;22.14;59.84;101443.63;4937323;28;98038;-51
2022/08/05 11:17:30;;;;;;;1.73;1.63;;;;;;;22.12;59.85;101429.44;4941689;28;96794;-52
2022/08/05 11:19:57;;;;;;;2.53;2.10;;;;;;;22.06;59.34;101409.19;4939381;28;97038;-53
2022/08/05 11:22:47;;;;;;;3.33;2.37;;;;;;;22.04;60.45;101406.19;4942489;28;97386;-53
2022/08/05 11:25:43;;;;;;;3.60;2.43;;;;;;;22.10;60.34;101401.19;4942235;28;100173;-51
2022/08/05 11:28:08;;;;;;;2.80;1.90;;;;;;;22.17;59.73;101402.53;4943098;28;97323;-51
2022/08/05 11:31:02;;;;;;;3.30;2.20;;;;;;;22.23;60.35;101401.06;4941857;28;97015;-50